createdAt,value
2023-05-21T00:01:07.825Z,102068.97
2023-05-21T00:03:36.567Z,102096.41
2023-05-21T00:06:04.099Z,102095.91
2023-05-21T00:08:31.309Z,102086.78
2023-05-21T00:10:58.345Z,102089.59
2023-05-21T00:13:25.044Z,102044.81
2023-05-21T00:15:52.107Z,102092.19
2023-05-21T00:18:18.906Z,102075.13
2023-05-21T00:20:45.935Z,102070.38
2023-05-21T00:23:13.041Z,102016.31
2023-05-21T00:25:39.775Z,102085.56
2023-05-21T00:28:06.599Z,102080.16
2023-05-21T00:30:33.269Z,102026.28
2023-05-21T00:33:03.123Z,102088.03
2023-05-21T00:35:30.082Z,102058.13
2023-05-21T00:37:57.523Z,102076.88
2023-05-21T00:40:24.200Z,102047.34
2023-05-21T00:42:50.922Z,102026.34
2023-05-21T00:45:17.622Z,102072.56
2023-05-21T00:47:45.132Z,102075.19
2023-05-21T00:50:31.296Z,102077.75
2023-05-21T00:52:59.916Z,102077.59
2023-05-21T00:55:26.909Z,102071.13
2023-05-21T00:57:53.710Z,102072.94
2023-05-21T01:00:21.428Z,102015.47
2023-05-21T01:02:48.606Z,102074.81
2023-05-21T01:05:15.881Z,102070.47
2023-05-21T01:07:43.609Z,102044.31
2023-05-21T01:10:11.643Z,102067.03
2023-05-21T01:12:39.758Z,102036.00
2023-05-21T01:15:07.312Z,102048.22
2023-05-21T01:17:34.512Z,102065.06
2023-05-21T01:20:01.927Z,102067.88
2023-05-21T01:22:32.745Z,102063.56
2023-05-21T01:25:02.960Z,102002.63
2023-05-21T01:27:30.084Z,102071.44
2023-05-21T01:29:57.616Z,102004.69
2023-05-21T01:33:02.894Z,102065.53
2023-05-21T01:35:34.170Z,102069.28
2023-05-21T01:38:35.430Z,102057.41
2023-05-21T01:41:08.196Z,102060.75
2023-05-21T01:43:39.469Z,102053.75
2023-05-21T01:46:09.816Z,102011.81
2023-05-21T01:48:36.824Z,101883.38
2023-05-21T01:51:05.096Z,102057.16
2023-05-21T01:53:32.374Z,101999.47
2023-05-21T01:55:59.492Z,102006.81
2023-05-21T01:58:26.282Z,102047.75
2023-05-21T02:00:52.971Z,102044.75
2023-05-21T02:03:21.012Z,102045.50
2023-05-21T02:05:47.805Z,102029.38
2023-05-21T02:08:15.473Z,102038.53
2023-05-21T02:10:42.281Z,101981.53
2023-05-21T02:13:08.894Z,102042.84
2023-05-21T02:15:35.798Z,102017.28
2023-05-21T02:18:03.681Z,102040.88
2023-05-21T02:20:31.196Z,102021.41
2023-05-21T02:22:57.934Z,102036.06
2023-05-21T02:25:24.745Z,101976.44
2023-05-21T02:27:56.899Z,101988.34
2023-05-21T02:30:23.842Z,101956.41
2023-05-21T02:32:50.916Z,101994.19
2023-05-21T02:35:17.825Z,102019.84
2023-05-21T02:37:44.667Z,101995.38
2023-05-21T02:40:11.730Z,102016.56
2023-05-21T02:42:40.439Z,102020.34
2023-05-21T02:45:11.979Z,102018.50
2023-05-21T02:47:39.039Z,101953.72
2023-05-21T02:50:09.035Z,102019.19
2023-05-21T02:52:35.796Z,102003.16
2023-05-21T02:55:02.623Z,101937.69
2023-05-21T02:57:29.227Z,101993.91
2023-05-21T02:59:55.845Z,101965.41
2023-05-21T03:02:22.740Z,101964.25
2023-05-21T03:04:51.032Z,101914.88
2023-05-21T03:07:20.732Z,102005.63
2023-05-21T03:09:47.428Z,102009.50
2023-05-21T03:12:14.141Z,102004.41
2023-05-21T03:14:42.811Z,102011.88
2023-05-21T03:17:14.115Z,102023.56
2023-05-21T03:19:42.334Z,102016.13
2023-05-21T03:22:09.071Z,101985.09
2023-05-21T03:24:36.971Z,102026.47
2023-05-21T03:27:06.813Z,102023.88
2023-05-21T03:29:34.178Z,102018.91
2023-05-21T03:32:01.621Z,102021.19
2023-05-21T03:34:28.283Z,102013.19
2023-05-21T03:36:54.942Z,101995.69
2023-05-21T03:39:21.652Z,102016.13
2023-05-21T03:41:48.261Z,102034.59
2023-05-21T03:44:14.829Z,101995.78
2023-05-21T03:46:41.556Z,101998.47
2023-05-21T03:49:08.209Z,102006.06
2023-05-21T03:51:34.885Z,101982.25
2023-05-21T03:54:01.764Z,101951.28
2023-05-21T03:56:28.485Z,102009.16
2023-05-21T03:58:55.174Z,102004.00
2023-05-21T04:01:22.162Z,101983.78
2023-05-21T04:03:48.906Z,102012.44
2023-05-21T04:06:16.138Z,101971.72
2023-05-21T04:08:42.928Z,101995.78
2023-05-21T04:11:09.562Z,101945.78
2023-05-21T04:13:36.469Z,101964.91
2023-05-21T04:16:03.198Z,101944.13
2023-05-21T04:18:29.849Z,101991.81
2023-05-21T04:20:56.614Z,101966.84
2023-05-21T04:23:23.972Z,101983.81
2023-05-21T04:25:51.161Z,101997.66
2023-05-21T04:28:20.369Z,101997.53
2023-05-21T04:30:47.972Z,102003.81
2023-05-21T04:33:18.579Z,101994.97
2023-05-21T04:35:47.493Z,101983.41
2023-05-21T04:38:14.299Z,101986.91
2023-05-21T04:40:40.989Z,101985.28
2023-05-21T04:43:09.140Z,101987.75
2023-05-21T04:45:36.111Z,101984.19
2023-05-21T04:48:03.098Z,101949.84
2023-05-21T04:50:31.014Z,101966.84
2023-05-21T04:52:59.784Z,101936.41
2023-05-21T04:55:27.631Z,101978.69
2023-05-21T04:57:54.295Z,101978.28
2023-05-21T05:00:21.828Z,101983.50
2023-05-21T05:02:48.593Z,101993.56
2023-05-21T05:05:15.266Z,101949.47
2023-05-21T05:07:41.996Z,101970.56
2023-05-21T05:10:08.824Z,101940.38
2023-05-21T05:12:35.410Z,101972.94
2023-05-21T05:15:02.087Z,101966.50
2023-05-21T05:17:28.813Z,101982.78
2023-05-21T05:19:55.462Z,101979.84
2023-05-21T05:22:22.053Z,101924.06
2023-05-21T05:24:48.731Z,101963.44
2023-05-21T05:27:15.349Z,101956.19
2023-05-21T05:29:41.931Z,101953.69
2023-05-21T05:32:08.984Z,101910.50
2023-05-21T05:34:35.641Z,101948.75
2023-05-21T05:37:03.070Z,101966.50
2023-05-21T05:39:29.837Z,101979.78
2023-05-21T05:41:56.782Z,101983.84
2023-05-21T05:44:23.393Z,101949.06
2023-05-21T05:46:50.005Z,101979.00
2023-05-21T05:49:16.986Z,101985.38
2023-05-21T05:51:43.638Z,101950.47
2023-05-21T05:54:10.474Z,101964.84
2023-05-21T05:56:37.037Z,101977.25
2023-05-21T05:59:03.725Z,101977.19
2023-05-21T06:01:32.273Z,101962.38
2023-05-21T06:03:58.927Z,101922.06
2023-05-21T06:06:25.587Z,101968.41
2023-05-21T06:08:52.294Z,101939.41
2023-05-21T06:11:19.365Z,101947.53
2023-05-21T06:13:46.117Z,101962.34
2023-05-21T06:16:13.055Z,101928.69
2023-05-21T06:18:39.766Z,101963.31
2023-05-21T06:21:06.453Z,101963.97
2023-05-21T06:23:33.103Z,101960.50
2023-05-21T06:25:59.833Z,101940.47
2023-05-21T06:28:26.606Z,101963.97
2023-05-21T06:30:53.281Z,101957.25
2023-05-21T06:33:20.218Z,101885.78
2023-05-21T06:35:47.174Z,101953.97
2023-05-21T06:38:13.863Z,101948.38
2023-05-21T06:40:40.676Z,101901.84
2023-05-21T06:43:07.339Z,101953.25
2023-05-21T06:45:34.191Z,101921.84
2023-05-21T06:48:01.138Z,101951.09
2023-05-21T06:50:27.800Z,101945.03
2023-05-21T06:52:54.490Z,101937.41
2023-05-21T06:55:21.443Z,101931.25
2023-05-21T06:57:48.103Z,101919.47
2023-05-21T07:00:15.123Z,101934.38
2023-05-21T07:02:41.872Z,101929.03
2023-05-21T07:05:09.034Z,101920.38
2023-05-21T07:07:35.732Z,101930.59
2023-05-21T07:10:02.525Z,101928.13
2023-05-21T07:12:29.175Z,101932.56
2023-05-21T07:14:57.569Z,101927.38
2023-05-21T07:17:25.865Z,101917.84
2023-05-21T07:19:52.603Z,101932.91
2023-05-21T07:22:19.266Z,101915.88
2023-05-21T07:24:48.975Z,101922.22
2023-05-21T07:27:25.412Z,101900.13
2023-05-21T07:29:52.952Z,101915.84
2023-05-21T07:32:19.561Z,101910.19
2023-05-21T07:34:47.222Z,101924.44
2023-05-21T07:37:14.227Z,101896.47
2023-05-21T07:39:41.091Z,101916.94
2023-05-21T07:42:07.759Z,101908.50
2023-05-21T07:44:34.369Z,101901.59
2023-05-21T07:47:00.985Z,101883.97
2023-05-21T07:49:27.560Z,101897.81
2023-05-21T07:51:54.282Z,101897.09
2023-05-21T07:54:21.352Z,101896.56
2023-05-21T07:56:47.975Z,101852.41
2023-05-21T07:59:17.200Z,101857.91
2023-05-21T08:01:44.415Z,101900.72
2023-05-21T08:04:11.365Z,101888.44
2023-05-21T08:06:38.203Z,101843.22
2023-05-21T08:09:06.378Z,101889.31
2023-05-21T08:11:33.362Z,101853.84
2023-05-21T08:14:00.309Z,101859.50
2023-05-21T08:16:27.220Z,101883.31
2023-05-21T08:18:54.051Z,101853.31
2023-05-21T08:21:20.971Z,101832.44
2023-05-21T08:23:47.732Z,101885.34
2023-05-21T08:26:16.660Z,101883.81
2023-05-21T08:28:43.818Z,101875.78
2023-05-21T08:31:10.965Z,101874.06
2023-05-21T08:33:38.750Z,101868.75
2023-05-21T08:36:06.827Z,101874.81
2023-05-21T08:38:34.941Z,101854.97
2023-05-21T08:41:01.679Z,101870.63
2023-05-21T08:43:29.422Z,101877.31
2023-05-21T08:45:59.286Z,101864.41
2023-05-21T08:48:26.440Z,101867.00
2023-05-21T08:50:54.970Z,101844.28
2023-05-21T08:53:28.696Z,101855.81
2023-05-21T08:55:56.420Z,101840.38
2023-05-21T08:58:23.486Z,101861.81
2023-05-21T09:00:50.251Z,101862.25
2023-05-21T09:03:17.322Z,101860.13
2023-05-21T09:05:45.273Z,101868.50
2023-05-21T09:08:19.054Z,101860.50
2023-05-21T09:10:51.435Z,101864.28
2023-05-21T09:13:19.435Z,101862.06
2023-05-21T09:15:47.203Z,101858.50
2023-05-21T09:18:15.079Z,101819.25
2023-05-21T09:20:42.286Z,101844.56
2023-05-21T09:23:16.991Z,101824.94
2023-05-21T09:25:48.731Z,101856.69
2023-05-21T09:28:17.331Z,101863.84
2023-05-21T09:30:54.437Z,101859.78
2023-05-21T09:33:29.527Z,101854.94
2023-05-21T09:35:56.774Z,101863.47
2023-05-21T09:38:24.191Z,101869.94
2023-05-21T09:40:51.049Z,101857.81
2023-05-21T09:43:18.013Z,101828.78
2023-05-21T09:45:59.707Z,101865.63
2023-05-21T09:48:35.448Z,101861.75
2023-05-21T09:51:09.543Z,101861.34
2023-05-21T09:53:36.771Z,101802.59
2023-05-21T09:56:04.058Z,101798.03
2023-05-21T09:58:31.144Z,101821.88
2023-05-21T10:00:59.010Z,101844.63
2023-05-21T10:03:28.593Z,101846.72
2023-05-21T10:05:55.549Z,101848.69
2023-05-21T10:08:25.564Z,101695.38
2023-05-21T10:10:52.245Z,101806.16
2023-05-21T10:13:23.554Z,101836.44
2023-05-21T10:15:55.799Z,101830.72
2023-05-21T10:18:23.687Z,101787.59
2023-05-21T10:20:51.551Z,101795.97
2023-05-21T10:23:19.222Z,101828.66
2023-05-21T10:25:46.738Z,101795.19
2023-05-21T10:28:16.673Z,101811.31
2023-05-21T10:30:44.654Z,101822.25
2023-05-21T10:33:15.680Z,101784.03
2023-05-21T10:35:42.932Z,101821.41
2023-05-21T10:38:10.057Z,101807.25
2023-05-21T10:40:37.098Z,101772.94
2023-05-21T10:43:36.016Z,101797.66
2023-05-21T10:46:32.544Z,101767.66
2023-05-21T10:49:30.173Z,101791.63
2023-05-21T10:52:00.633Z,101788.66
2023-05-21T10:54:43.819Z,101784.50
2023-05-21T10:57:40.293Z,101780.88
2023-05-21T11:00:09.760Z,101776.84
2023-05-21T11:02:37.112Z,101776.53
2023-05-21T11:05:04.727Z,101750.94
2023-05-21T11:07:56.900Z,101724.88
2023-05-21T11:10:40.877Z,101754.44
2023-05-21T11:13:12.994Z,101757.41
2023-05-21T11:15:58.183Z,101755.25
2023-05-21T11:18:47.662Z,101757.13
2023-05-21T11:21:17.249Z,101707.97
2023-05-21T11:23:54.747Z,101746.81
2023-05-21T11:26:23.251Z,101740.44
2023-05-21T11:29:05.218Z,101742.34
2023-05-21T11:31:39.622Z,101709.78
2023-05-21T11:34:14.274Z,101714.09
2023-05-21T11:36:44.199Z,101752.19
2023-05-21T11:39:12.709Z,101742.38
2023-05-21T11:42:04.440Z,101691.31
2023-05-21T11:44:42.128Z,101725.72
2023-05-21T11:47:10.799Z,101737.38
2023-05-21T11:49:38.603Z,101702.44
2023-05-21T11:52:07.575Z,101721.69
2023-05-21T11:54:40.304Z,101739.19
2023-05-21T11:57:08.241Z,101705.28
2023-05-21T11:59:35.664Z,101726.53
2023-05-21T12:02:03.685Z,101723.44
2023-05-21T12:04:31.659Z,101715.00
2023-05-21T12:06:58.826Z,101715.19
2023-05-21T12:09:25.764Z,101667.06
2023-05-21T12:11:53.488Z,101697.06
2023-05-21T12:14:21.739Z,101717.16
2023-05-21T12:16:48.632Z,101691.22
2023-05-21T12:19:18.134Z,101691.31
2023-05-21T12:21:45.321Z,101697.84
2023-05-21T12:24:11.981Z,101693.34
2023-05-21T12:26:38.941Z,101696.16
2023-05-21T12:29:05.981Z,101701.47
2023-05-21T12:31:33.129Z,101701.38
2023-05-21T12:34:02.411Z,101697.44
2023-05-21T12:36:32.137Z,101701.59
2023-05-21T12:38:58.918Z,101698.53
2023-05-21T12:41:26.704Z,101702.44
2023-05-21T12:43:53.417Z,101699.63
2023-05-21T12:46:23.733Z,101691.00
2023-05-21T12:48:54.849Z,101635.63
2023-05-21T12:51:21.694Z,101697.09
2023-05-21T12:53:48.771Z,101693.81
2023-05-21T12:56:16.291Z,101684.06
2023-05-21T12:58:49.599Z,101684.09
2023-05-21T13:01:16.391Z,101685.38
2023-05-21T13:03:43.381Z,101665.63
2023-05-21T13:06:10.050Z,101634.81
2023-05-21T13:08:36.717Z,101674.41
2023-05-21T13:11:04.043Z,101685.44
2023-05-21T13:13:30.975Z,101647.66
2023-05-21T13:15:57.717Z,101682.72
2023-05-21T13:18:24.440Z,101673.09
2023-05-21T13:20:51.971Z,101607.19
2023-05-21T13:23:18.679Z,101633.28
2023-05-21T13:25:45.776Z,101676.22
2023-05-21T13:28:15.222Z,101675.09
2023-05-21T13:30:41.945Z,101645.69
2023-05-21T13:33:08.749Z,101670.31
2023-05-21T13:35:35.499Z,101614.47
2023-05-21T13:38:02.363Z,101617.59
2023-05-21T13:40:29.131Z,101632.75
2023-05-21T13:42:55.827Z,101666.19
2023-05-21T13:45:25.556Z,101644.47
2023-05-21T13:47:52.231Z,101636.34
2023-05-21T13:50:18.875Z,101663.25
2023-05-21T13:52:46.237Z,101587.84
2023-05-21T13:55:13.107Z,101654.69
2023-05-21T13:57:40.814Z,101654.16
2023-05-21T14:00:09.527Z,101646.41
2023-05-21T14:02:36.284Z,101636.78
2023-05-21T14:05:03.030Z,101612.53
2023-05-21T14:07:29.868Z,101634.91
2023-05-21T14:09:56.927Z,101610.72
2023-05-21T14:12:23.625Z,101596.31
2023-05-21T14:14:50.240Z,101639.56
2023-05-21T14:17:16.863Z,101607.72
2023-05-21T14:19:43.506Z,101607.22
2023-05-21T14:22:10.121Z,101596.06
2023-05-21T14:24:36.869Z,101621.16
2023-05-21T14:27:03.704Z,101590.75
2023-05-21T14:29:30.322Z,101637.75
2023-05-21T14:31:57.017Z,101594.88
2023-05-21T14:34:23.674Z,101636.69
2023-05-21T14:36:50.424Z,101609.19
2023-05-21T14:39:17.475Z,101643.88
2023-05-21T14:41:44.079Z,101638.75
2023-05-21T14:44:10.977Z,101584.25
2023-05-21T14:46:39.023Z,101637.25
2023-05-21T14:49:06.105Z,101637.50
2023-05-21T14:51:33.487Z,101636.47
2023-05-21T14:54:00.161Z,101640.22
2023-05-21T14:56:28.236Z,101628.97
2023-05-21T14:58:55.496Z,101614.56
2023-05-21T15:01:22.694Z,101624.78
2023-05-21T15:03:49.763Z,101651.00
2023-05-21T15:06:16.651Z,101641.03
2023-05-21T15:08:43.267Z,101642.25
2023-05-21T15:11:10.227Z,101639.81
2023-05-21T15:13:37.096Z,101643.81
2023-05-21T15:16:04.062Z,101647.88
2023-05-21T15:18:30.808Z,101601.44
2023-05-21T15:20:58.357Z,101641.56
2023-05-21T15:23:25.082Z,101637.25
2023-05-21T15:25:51.830Z,101636.13
2023-05-21T15:28:18.481Z,101627.59
2023-05-21T15:30:45.217Z,101599.19
2023-05-21T15:33:11.831Z,101609.75
2023-05-21T15:35:38.886Z,101631.63
2023-05-21T15:38:06.049Z,101629.31
2023-05-21T15:40:33.057Z,101622.66
2023-05-21T15:43:00.001Z,101636.06
2023-05-21T15:45:26.653Z,101607.00
2023-05-21T15:47:53.301Z,101624.97
2023-05-21T15:50:20.002Z,101623.72
2023-05-21T15:52:46.624Z,101621.41
2023-05-21T15:55:14.400Z,101548.69
2023-05-21T15:57:41.120Z,101573.72
2023-05-21T16:00:09.629Z,101602.28
2023-05-21T16:02:36.722Z,101603.38
2023-05-21T16:05:03.661Z,101606.31
2023-05-21T16:07:30.307Z,101580.84
2023-05-21T16:09:56.965Z,101597.06
2023-05-21T16:12:23.564Z,101584.69
2023-05-21T16:14:50.240Z,101579.44
2023-05-21T16:17:17.594Z,101593.97
2023-05-21T16:19:44.223Z,101538.38
2023-05-21T16:22:11.091Z,101548.75
2023-05-21T16:24:38.292Z,101607.72
2023-05-21T16:27:05.276Z,101603.97
2023-05-21T16:29:32.150Z,101578.00
2023-05-21T16:31:58.918Z,101587.56
2023-05-21T16:34:25.878Z,101593.31
2023-05-21T16:36:52.568Z,101542.94
2023-05-21T16:39:19.209Z,101565.00
2023-05-21T16:41:45.852Z,101595.00
2023-05-21T16:44:12.557Z,101593.13
2023-05-21T16:46:39.179Z,101560.00
2023-05-21T16:49:05.892Z,101583.81
2023-05-21T16:51:32.623Z,101585.97
2023-05-21T16:53:59.995Z,101588.94
2023-05-21T16:56:27.725Z,101550.50
2023-05-21T16:58:54.380Z,101566.22
2023-05-21T17:01:21.058Z,101578.31
2023-05-21T17:03:47.990Z,101579.78
2023-05-21T17:06:15.103Z,101578.31
2023-05-21T17:08:42.801Z,101556.56
2023-05-21T17:11:09.597Z,101565.97
2023-05-21T17:13:36.236Z,101532.38
2023-05-21T17:16:02.953Z,101588.50
2023-05-21T17:18:29.618Z,101516.91
2023-05-21T17:20:56.607Z,101584.66
2023-05-21T17:23:23.399Z,101594.19
2023-05-21T17:25:50.145Z,101587.56
2023-05-21T17:28:16.741Z,101580.53
2023-05-21T17:30:43.396Z,101601.94
2023-05-21T17:33:10.658Z,101605.66
2023-05-21T17:35:37.864Z,101587.34
2023-05-21T17:38:04.702Z,101595.59
2023-05-21T17:40:31.328Z,101610.16
2023-05-21T17:42:57.989Z,101608.81
2023-05-21T17:45:24.642Z,101604.13
2023-05-21T17:47:51.403Z,101604.13
2023-05-21T17:50:18.152Z,101610.06
2023-05-21T17:52:44.872Z,101612.44
2023-05-21T17:55:11.623Z,101607.50
2023-05-21T17:57:38.302Z,101611.44
2023-05-21T18:00:06.900Z,101615.75
2023-05-21T18:02:33.634Z,101602.19
2023-05-21T18:05:00.299Z,101629.75
2023-05-21T18:07:27.009Z,101625.63
2023-05-21T18:09:53.661Z,101591.97
2023-05-21T18:12:20.357Z,101624.84
2023-05-21T18:14:47.167Z,101560.66
2023-05-21T18:17:13.793Z,101606.56
2023-05-21T18:19:40.727Z,101616.25
2023-05-21T18:22:08.189Z,101612.09
2023-05-21T18:24:36.554Z,101625.38
2023-05-21T18:27:04.082Z,101621.72
2023-05-21T18:29:38.151Z,101596.28
2023-05-21T18:32:08.110Z,101616.84
2023-05-21T18:34:48.573Z,101638.00
2023-05-21T18:37:30.213Z,101645.28
2023-05-21T18:39:59.827Z,101545.75
2023-05-21T18:42:31.333Z,101609.78
2023-05-21T18:45:06.192Z,101536.03
2023-05-21T18:47:33.161Z,101634.88
2023-05-21T18:50:00.469Z,101641.53
2023-05-21T18:52:27.407Z,101552.56
2023-05-21T18:54:54.882Z,101622.22
2023-05-21T18:57:21.698Z,101633.97
2023-05-21T18:59:48.699Z,101569.03
2023-05-21T19:02:17.005Z,101637.25
2023-05-21T19:04:46.772Z,101652.13
2023-05-21T19:07:25.652Z,101621.72
2023-05-21T19:09:53.290Z,101496.59
2023-05-21T19:12:31.839Z,101642.41
2023-05-21T19:14:59.143Z,101637.50
2023-05-21T19:17:26.171Z,101623.94
2023-05-21T19:19:56.220Z,101603.94
2023-05-21T19:22:27.245Z,101644.19
2023-05-21T19:24:54.537Z,101648.78
2023-05-21T19:27:21.729Z,101613.13
2023-05-21T19:29:48.649Z,101645.44
2023-05-21T19:32:18.945Z,101655.06
2023-05-21T19:34:45.524Z,101608.47
2023-05-21T19:37:12.308Z,101606.34
2023-05-21T19:39:43.435Z,101662.91
2023-05-21T19:42:10.532Z,101678.19
2023-05-21T19:44:40.546Z,101677.91
2023-05-21T19:47:07.644Z,101661.66
2023-05-21T19:49:34.446Z,101684.28
2023-05-21T19:52:02.292Z,101689.31
2023-05-21T19:54:29.126Z,101701.00
2023-05-21T19:56:55.727Z,101695.91
2023-05-21T19:59:22.824Z,101704.66
2023-05-21T20:01:49.714Z,101699.72
2023-05-21T20:04:16.497Z,101698.88
2023-05-21T20:06:43.318Z,101692.41
2023-05-21T20:09:12.184Z,101695.81
2023-05-21T20:11:38.817Z,101720.97
2023-05-21T20:14:05.488Z,101718.22
2023-05-21T20:16:32.158Z,101723.19
2023-05-21T20:19:01.146Z,101701.66
2023-05-21T20:21:31.658Z,101706.97
2023-05-21T20:23:58.372Z,101725.78
2023-05-21T20:26:26.416Z,101674.50
2023-05-21T20:28:53.210Z,101714.00
2023-05-21T20:31:20.585Z,101648.72
2023-05-21T20:33:53.569Z,101703.22
2023-05-21T20:36:21.413Z,101727.69
2023-05-21T20:38:48.467Z,101725.47
2023-05-21T20:41:15.167Z,101709.06
2023-05-21T20:43:45.488Z,101728.03
2023-05-21T20:46:12.253Z,101723.78
2023-05-21T20:48:38.951Z,101725.66
2023-05-21T20:51:05.733Z,101698.97
2023-05-21T20:53:32.384Z,101706.88
2023-05-21T20:56:01.725Z,101671.28
2023-05-21T20:58:29.133Z,101681.06
2023-05-21T21:00:55.827Z,101696.09
2023-05-21T21:03:22.504Z,101727.56
2023-05-21T21:05:49.235Z,101720.38
2023-05-21T21:08:16.397Z,101710.78
2023-05-21T21:10:47.016Z,101708.06
2023-05-21T21:13:14.797Z,101720.56
2023-05-21T21:15:41.562Z,101677.47
2023-05-21T21:18:08.293Z,101722.59
2023-05-21T21:20:34.969Z,101725.00
2023-05-21T21:23:01.819Z,101724.31
2023-05-21T21:25:28.634Z,101689.59
